createdAt,value
2023-12-16T00:01:12.823Z,11.97
2023-12-16T00:03:39.872Z,12.57
2023-12-16T00:06:07.837Z,11.80
2023-12-16T00:08:34.512Z,12.63
2023-12-16T00:11:01.187Z,12.97
2023-12-16T00:13:28.329Z,13.30
2023-12-16T00:15:55.051Z,14.30
2023-12-16T00:18:21.965Z,13.87
2023-12-16T00:20:49.253Z,13.47
2023-12-16T00:23:15.889Z,13.23
2023-12-16T00:25:42.542Z,12.60
2023-12-16T00:28:09.728Z,13.27
2023-12-16T00:30:36.470Z,13.67
2023-12-16T00:33:03.254Z,12.63
2023-12-16T00:35:29.912Z,12.97
2023-12-16T00:37:56.543Z,13.10
2023-12-16T00:40:23.333Z,12.37
2023-12-16T00:42:50.370Z,11.90
2023-12-16T00:45:20.214Z,11.70
2023-12-16T00:47:48.484Z,12.33
2023-12-16T00:50:15.230Z,12.40
2023-12-16T00:52:41.864Z,11.37
2023-12-16T00:55:09.006Z,11.53
2023-12-16T00:57:36.206Z,11.27
2023-12-16T01:00:03.122Z,11.87
2023-12-16T01:02:29.763Z,11.03
2023-12-16T01:04:56.929Z,11.83
2023-12-16T01:07:23.682Z,12.00
2023-12-16T01:09:51.877Z,12.20
2023-12-16T01:12:18.786Z,11.87
2023-12-16T01:14:45.460Z,12.20
2023-12-16T01:17:12.157Z,11.83
2023-12-16T01:19:38.816Z,12.10
2023-12-16T01:22:05.510Z,12.53
2023-12-16T01:24:37.812Z,12.93
2023-12-16T01:27:06.184Z,12.87
2023-12-16T01:29:32.853Z,12.00
2023-12-16T01:31:59.508Z,12.70
2023-12-16T01:34:26.219Z,12.30
2023-12-16T01:36:52.927Z,12.40
2023-12-16T01:39:19.578Z,12.53
2023-12-16T01:41:46.456Z,11.47
2023-12-16T01:44:13.085Z,12.60
2023-12-16T01:46:40.125Z,12.03
2023-12-16T01:49:06.922Z,13.03
2023-12-16T01:51:33.658Z,12.57
2023-12-16T01:54:00.325Z,12.90
2023-12-16T01:56:29.685Z,12.20
2023-12-16T01:58:56.361Z,12.37
2023-12-16T02:01:23.245Z,12.60
2023-12-16T02:03:50.489Z,12.30
2023-12-16T02:06:17.253Z,12.37
2023-12-16T02:08:43.967Z,12.60
2023-12-16T02:11:11.504Z,12.87
2023-12-16T02:13:38.464Z,12.00
2023-12-16T02:16:05.671Z,12.43
2023-12-16T02:18:34.255Z,12.73
2023-12-16T02:21:02.466Z,12.50
2023-12-16T02:23:29.133Z,11.90
2023-12-16T02:25:55.883Z,12.10
2023-12-16T02:28:22.652Z,11.30
2023-12-16T02:30:49.494Z,12.10
2023-12-16T02:33:18.607Z,11.37
2023-12-16T02:35:45.411Z,12.83
2023-12-16T02:38:12.090Z,12.33
2023-12-16T02:40:43.308Z,12.97
2023-12-16T02:43:10.420Z,12.47
2023-12-16T02:45:37.148Z,12.10
2023-12-16T02:48:04.093Z,12.00
2023-12-16T02:50:30.943Z,12.17
2023-12-16T02:52:57.587Z,12.10
2023-12-16T02:55:24.551Z,12.53
2023-12-16T02:57:51.334Z,12.47
2023-12-16T03:00:18.031Z,12.70
2023-12-16T03:02:44.705Z,13.10
2023-12-16T03:05:11.399Z,12.83
2023-12-16T03:07:39.459Z,12.10
2023-12-16T03:10:06.689Z,12.07
2023-12-16T03:12:33.411Z,12.57
2023-12-16T03:15:00.088Z,12.70
2023-12-16T03:17:26.839Z,12.40
2023-12-16T03:19:53.566Z,12.87
2023-12-16T03:22:20.265Z,12.43
2023-12-16T03:24:47.409Z,12.57
2023-12-16T03:27:14.148Z,12.77
2023-12-16T03:29:40.784Z,12.30
2023-12-16T03:32:07.430Z,12.10
2023-12-16T03:34:34.180Z,12.77
2023-12-16T03:37:00.886Z,12.63
2023-12-16T03:39:27.604Z,12.10
2023-12-16T03:41:54.505Z,12.13
2023-12-16T03:44:21.200Z,11.87
2023-12-16T03:46:47.888Z,12.77
2023-12-16T03:49:15.109Z,12.70
2023-12-16T03:51:41.865Z,12.27
2023-12-16T03:54:10.538Z,12.33
2023-12-16T03:56:37.260Z,12.60
2023-12-16T03:59:04.123Z,13.60
2023-12-16T04:01:30.946Z,13.53
2023-12-16T04:03:57.742Z,13.17
2023-12-16T04:06:24.450Z,12.67
2023-12-16T04:08:51.109Z,13.07
2023-12-16T04:11:17.883Z,13.47
2023-12-16T04:13:44.619Z,12.70
2023-12-16T04:16:11.382Z,13.23
2023-12-16T04:18:38.337Z,13.10
2023-12-16T04:21:05.796Z,12.83
2023-12-16T04:23:32.529Z,12.87
2023-12-16T04:25:59.481Z,13.20
2023-12-16T04:28:26.388Z,13.73
2023-12-16T04:30:53.288Z,13.13
2023-12-16T04:33:20.225Z,13.00
2023-12-16T04:35:47.008Z,14.00
2023-12-16T04:38:13.679Z,23.67
2023-12-16T04:40:40.650Z,15.30
2023-12-16T04:43:10.016Z,13.17
2023-12-16T04:45:36.852Z,14.07
2023-12-16T04:48:04.062Z,13.10
2023-12-16T04:50:30.915Z,12.97
2023-12-16T04:52:57.986Z,12.70
2023-12-16T04:55:27.475Z,13.57
2023-12-16T04:57:54.293Z,12.90
2023-12-16T05:00:21.043Z,12.53
2023-12-16T05:02:47.752Z,13.17
2023-12-16T05:05:14.653Z,14.00
2023-12-16T05:07:41.603Z,13.77
2023-12-16T05:10:11.683Z,13.90
2023-12-16T05:12:40.666Z,13.30
2023-12-16T05:15:07.877Z,13.33
2023-12-16T05:17:35.060Z,13.50
2023-12-16T05:20:02.078Z,14.30
2023-12-16T05:22:34.461Z,14.37
2023-12-16T05:25:05.057Z,13.37
2023-12-16T05:27:32.383Z,13.40
2023-12-16T05:29:59.263Z,13.93
2023-12-16T05:32:27.318Z,12.80
2023-12-16T05:34:54.838Z,13.53
2023-12-16T05:37:21.664Z,13.93
2023-12-16T05:39:48.721Z,14.07
2023-12-16T05:42:15.445Z,13.47
2023-12-16T05:44:42.113Z,14.17
2023-12-16T05:47:09.287Z,14.00
2023-12-16T05:49:36.721Z,14.13
2023-12-16T05:52:04.111Z,13.80
2023-12-16T05:54:30.905Z,13.17
2023-12-16T05:56:57.606Z,13.27
2023-12-16T05:59:25.392Z,13.20
2023-12-16T06:01:52.408Z,13.97
2023-12-16T06:04:19.230Z,13.63
2023-12-16T06:06:45.950Z,13.00
2023-12-16T06:09:13.046Z,13.50
2023-12-16T06:11:40.068Z,14.27
2023-12-16T06:14:06.759Z,13.70
2023-12-16T06:16:33.829Z,14.10
2023-12-16T06:19:00.723Z,14.30
2023-12-16T06:21:27.862Z,13.60
2023-12-16T06:23:54.552Z,12.83
2023-12-16T06:26:21.286Z,14.10
2023-12-16T06:28:48.406Z,13.10
2023-12-16T06:31:19.346Z,13.47
2023-12-16T06:33:46.260Z,14.60
2023-12-16T06:36:13.021Z,14.47
2023-12-16T06:38:40.124Z,14.43
2023-12-16T06:41:06.957Z,13.77
2023-12-16T06:43:33.642Z,13.63
2023-12-16T06:46:01.317Z,13.70
2023-12-16T06:48:28.353Z,13.50
2023-12-16T06:50:58.670Z,13.70
2023-12-16T06:53:25.400Z,13.57
2023-12-16T06:55:54.265Z,13.93
2023-12-16T06:58:21.779Z,13.67
2023-12-16T07:00:48.687Z,14.57
2023-12-16T07:03:15.417Z,13.57
2023-12-16T07:05:42.163Z,13.67
2023-12-16T07:08:08.880Z,13.23
2023-12-16T07:10:35.556Z,13.40
2023-12-16T07:13:02.226Z,13.80
2023-12-16T07:15:28.872Z,13.60
2023-12-16T07:17:55.687Z,13.50
2023-12-16T07:20:22.373Z,13.93
2023-12-16T07:22:49.031Z,14.37
2023-12-16T07:25:15.773Z,14.00
2023-12-16T07:27:42.629Z,13.73
2023-12-16T07:30:09.908Z,13.93
2023-12-16T07:32:36.866Z,14.03
2023-12-16T07:35:04.414Z,14.73
2023-12-16T07:37:31.225Z,13.33
2023-12-16T07:39:57.944Z,13.67
2023-12-16T07:42:24.895Z,14.00
2023-12-16T07:44:51.548Z,13.93
2023-12-16T07:47:18.365Z,13.97
2023-12-16T07:49:45.125Z,13.17
2023-12-16T07:52:11.899Z,15.83
2023-12-16T07:54:40.170Z,14.27
2023-12-16T07:57:06.830Z,14.13
2023-12-16T07:59:33.495Z,14.00
2023-12-16T08:02:05.025Z,14.43
2023-12-16T08:04:31.791Z,14.40
2023-12-16T08:06:58.485Z,27.10
2023-12-16T08:09:25.219Z,18.83
2023-12-16T08:11:55.951Z,17.63
2023-12-16T08:14:22.831Z,15.70
2023-12-16T08:16:49.496Z,15.00
2023-12-16T08:19:16.219Z,14.90
2023-12-16T08:21:42.958Z,15.00
2023-12-16T08:24:09.608Z,15.37
2023-12-16T08:26:36.268Z,14.43
2023-12-16T08:29:02.911Z,14.00
2023-12-16T08:31:29.791Z,48.03
2023-12-16T08:33:56.567Z,17.13
2023-12-16T08:36:23.303Z,15.87
2023-12-16T08:38:50.131Z,15.03
2023-12-16T08:41:16.794Z,17.63
2023-12-16T08:43:44.118Z,17.67
2023-12-16T08:46:10.808Z,19.60
2023-12-16T08:48:38.772Z,17.37
2023-12-16T08:51:05.729Z,16.47
2023-12-16T08:53:32.362Z,15.50
2023-12-16T08:55:59.019Z,16.70
2023-12-16T08:58:25.672Z,15.03
2023-12-16T09:00:53.856Z,15.03
2023-12-16T09:03:21.320Z,15.67
2023-12-16T09:05:48.415Z,17.80
2023-12-16T09:08:15.126Z,22.27
2023-12-16T09:10:41.805Z,16.93
2023-12-16T09:13:08.660Z,14.30
2023-12-16T09:15:35.394Z,14.30
2023-12-16T09:18:02.232Z,14.03
2023-12-16T09:20:28.949Z,14.03
2023-12-16T09:22:55.625Z,14.20
2023-12-16T09:25:22.348Z,14.73
2023-12-16T09:27:49.035Z,13.57
2023-12-16T09:30:15.943Z,14.13
2023-12-16T09:32:46.556Z,15.20
2023-12-16T09:35:13.431Z,14.63
2023-12-16T09:37:40.369Z,14.50
2023-12-16T09:40:07.914Z,14.77
2023-12-16T09:42:37.721Z,15.03
2023-12-16T09:45:04.921Z,14.27
2023-12-16T09:47:31.958Z,13.70
2023-12-16T09:50:01.789Z,13.73
2023-12-16T09:52:28.891Z,13.97
2023-12-16T09:54:56.043Z,14.20
2023-12-16T09:57:23.251Z,13.37
2023-12-16T09:59:50.940Z,13.77
2023-12-16T10:02:31.250Z,13.33
2023-12-16T10:04:59.577Z,13.13
2023-12-16T10:07:27.021Z,13.10
2023-12-16T10:09:54.027Z,12.57
2023-12-16T10:12:20.713Z,13.27
2023-12-16T10:14:51.344Z,14.40
2023-12-16T10:17:18.603Z,13.07
2023-12-16T10:19:45.833Z,12.50
2023-12-16T10:22:16.299Z,13.53
2023-12-16T10:24:43.177Z,13.23
2023-12-16T10:27:12.683Z,12.97
2023-12-16T10:29:50.035Z,12.70
2023-12-16T10:32:20.990Z,12.37
2023-12-16T10:34:47.743Z,12.67
2023-12-16T10:37:14.503Z,13.00
2023-12-16T10:39:41.197Z,11.93
2023-12-16T10:42:07.832Z,12.10
2023-12-16T10:44:34.487Z,12.00
2023-12-16T10:47:01.205Z,11.67
2023-12-16T10:49:32.336Z,11.50
2023-12-16T10:52:11.481Z,10.73
2023-12-16T10:54:41.114Z,10.50
2023-12-16T10:57:13.762Z,11.17
2023-12-16T10:59:44.887Z,11.27
2023-12-16T11:02:24.362Z,10.63
2023-12-16T11:04:56.476Z,10.87
2023-12-16T11:07:23.954Z,12.23
2023-12-16T11:09:50.652Z,12.00
2023-12-16T11:12:17.338Z,17.40
2023-12-16T11:14:43.994Z,13.30
2023-12-16T11:17:29.609Z,11.77
2023-12-16T11:20:09.427Z,29.83
2023-12-16T11:22:47.350Z,15.37
2023-12-16T11:25:20.983Z,11.73
2023-12-16T11:27:48.915Z,10.63
2023-12-16T11:30:16.137Z,11.10
2023-12-16T11:32:45.848Z,10.57
2023-12-16T11:35:12.556Z,9.37
2023-12-16T11:37:39.375Z,9.33
2023-12-16T11:40:08.984Z,9.17
2023-12-16T11:42:44.897Z,8.73
2023-12-16T11:45:11.555Z,8.00
2023-12-16T11:47:38.305Z,7.87
2023-12-16T11:50:05.314Z,7.87
2023-12-16T11:52:32.042Z,7.80
2023-12-16T11:54:59.074Z,7.90
2023-12-16T11:57:27.588Z,8.00
2023-12-16T11:59:55.079Z,7.90
2023-12-16T12:02:21.931Z,8.40
2023-12-16T12:04:49.071Z,8.20
2023-12-16T12:07:15.940Z,7.60
2023-12-16T12:09:43.365Z,7.90
2023-12-16T12:12:10.453Z,7.50
2023-12-16T12:14:42.792Z,7.17
2023-12-16T12:17:09.472Z,7.40
2023-12-16T12:19:36.229Z,7.20
2023-12-16T12:22:03.520Z,6.90
2023-12-16T12:24:30.263Z,7.10
2023-12-16T12:26:57.386Z,6.37
2023-12-16T12:29:24.754Z,6.77
2023-12-16T12:31:52.022Z,7.20
2023-12-16T12:34:22.832Z,7.67
2023-12-16T12:36:55.302Z,6.87
2023-12-16T12:39:22.406Z,7.20
2023-12-16T12:42:02.919Z,6.73
2023-12-16T12:44:31.573Z,6.80
2023-12-16T12:46:58.345Z,6.57
2023-12-16T12:49:32.591Z,6.63
2023-12-16T12:51:59.306Z,7.30
2023-12-16T12:54:26.754Z,6.43
2023-12-16T12:56:53.481Z,6.67
2023-12-16T12:59:58.138Z,6.60
2023-12-16T13:02:06.829Z,6.77
2023-12-16T13:04:33.487Z,6.93
2023-12-16T13:07:00.136Z,6.43
2023-12-16T13:09:26.820Z,6.77
2023-12-16T13:11:53.504Z,6.17
2023-12-16T13:14:26.853Z,6.27
2023-12-16T13:16:56.227Z,6.30
2023-12-16T13:19:22.944Z,5.93
2023-12-16T13:21:49.831Z,6.13
2023-12-16T13:24:16.625Z,6.47
2023-12-16T13:26:43.441Z,6.83
2023-12-16T13:29:10.094Z,6.10
2023-12-16T13:31:36.812Z,6.27
2023-12-16T13:34:03.632Z,6.23
2023-12-16T13:36:34.665Z,6.10
2023-12-16T13:39:16.624Z,5.77
2023-12-16T13:41:43.416Z,6.00
2023-12-16T13:44:10.066Z,5.63
2023-12-16T13:46:36.829Z,5.70
2023-12-16T13:49:06.940Z,5.70
2023-12-16T13:51:33.908Z,5.30
2023-12-16T13:54:00.618Z,5.53
2023-12-16T13:56:27.735Z,5.73
2023-12-16T13:58:54.492Z,5.30
2023-12-16T14:01:22.040Z,5.00
2023-12-16T14:03:48.986Z,6.10
2023-12-16T14:06:15.773Z,5.77
2023-12-16T14:08:42.581Z,5.57
2023-12-16T14:11:09.293Z,5.73
2023-12-16T14:13:37.489Z,5.30
2023-12-16T14:16:04.797Z,5.70
2023-12-16T14:18:31.606Z,6.63
2023-12-16T14:20:58.485Z,5.87
2023-12-16T14:23:25.167Z,6.00
2023-12-16T14:25:51.810Z,5.97
2023-12-16T14:28:18.462Z,6.17
2023-12-16T14:30:45.191Z,5.93
2023-12-16T14:33:12.250Z,6.00
2023-12-16T14:35:39.238Z,6.23
2023-12-16T14:38:06.058Z,6.20
2023-12-16T14:40:32.801Z,6.17
2023-12-16T14:42:59.474Z,6.67
2023-12-16T14:45:26.218Z,6.27
2023-12-16T14:47:53.000Z,5.97
2023-12-16T14:50:19.739Z,6.27
2023-12-16T14:52:46.445Z,6.30
2023-12-16T14:55:13.156Z,5.73
2023-12-16T14:57:40.168Z,6.23
2023-12-16T15:00:07.620Z,6.23
2023-12-16T15:02:34.359Z,7.20
2023-12-16T15:05:02.706Z,5.80
2023-12-16T15:07:29.517Z,6.10
2023-12-16T15:09:56.304Z,7.10
2023-12-16T15:12:23.229Z,6.87
2023-12-16T15:14:50.088Z,6.53
2023-12-16T15:17:16.878Z,6.80
2023-12-16T15:19:43.739Z,6.97
2023-12-16T15:22:10.695Z,6.70
2023-12-16T15:24:37.900Z,7.07
2023-12-16T15:27:04.967Z,6.80
2023-12-16T15:29:34.661Z,7.43
2023-12-16T15:32:01.786Z,7.40
2023-12-16T15:34:30.175Z,7.70
2023-12-16T15:37:04.231Z,17.63
2023-12-16T15:39:35.695Z,34.27
2023-12-16T15:42:02.482Z,46.13
2023-12-16T15:44:29.227Z,52.43
2023-12-16T15:46:56.000Z,23.97
2023-12-16T15:49:24.823Z,18.77
2023-12-16T15:51:51.679Z,10.70
2023-12-16T15:54:18.409Z,11.80
2023-12-16T15:56:46.898Z,10.77
2023-12-16T15:59:13.896Z,13.87
2023-12-16T16:01:40.635Z,12.13
2023-12-16T16:04:07.590Z,10.23
2023-12-16T16:06:34.649Z,11.20
2023-12-16T16:09:01.673Z,11.27
2023-12-16T16:11:28.759Z,12.87
2023-12-16T16:13:55.448Z,10.50
2023-12-16T16:16:22.244Z,10.50
2023-12-16T16:18:49.728Z,10.13
2023-12-16T16:21:17.015Z,10.20
2023-12-16T16:23:43.986Z,10.03
2023-12-16T16:26:11.092Z,10.13
2023-12-16T16:28:37.785Z,9.37
2023-12-16T16:31:07.326Z,9.80
2023-12-16T16:33:34.202Z,10.20
2023-12-16T16:36:02.322Z,10.50
2023-12-16T16:38:30.157Z,10.67
2023-12-16T16:40:56.810Z,10.23
2023-12-16T16:43:23.516Z,10.07
2023-12-16T16:45:50.167Z,10.63
2023-12-16T16:48:16.946Z,11.60
2023-12-16T16:50:49.172Z,11.10
2023-12-16T16:53:18.810Z,10.80
2023-12-16T16:55:45.529Z,11.57
2023-12-16T16:58:12.193Z,10.70
2023-12-16T17:00:40.029Z,10.33
2023-12-16T17:03:06.890Z,10.47
2023-12-16T17:05:33.842Z,10.60
2023-12-16T17:08:00.890Z,10.80
2023-12-16T17:10:27.597Z,12.00
2023-12-16T17:12:54.319Z,13.53
2023-12-16T17:15:21.298Z,14.17
2023-12-16T17:17:48.122Z,15.00
2023-12-16T17:20:14.829Z,14.00
2023-12-16T17:22:41.525Z,14.97
2023-12-16T17:25:09.267Z,17.20
2023-12-16T17:27:35.944Z,16.93
2023-12-16T17:30:03.011Z,14.73
2023-12-16T17:32:29.871Z,14.37
2023-12-16T17:34:57.808Z,13.30
2023-12-16T17:37:24.510Z,13.50
2023-12-16T17:39:51.152Z,13.70
2023-12-16T17:42:17.815Z,13.70
2023-12-16T17:44:44.531Z,13.40
2023-12-16T17:47:11.578Z,13.17
2023-12-16T17:49:38.228Z,12.80
2023-12-16T17:52:05.038Z,12.40
2023-12-16T17:54:31.697Z,12.10
2023-12-16T17:56:58.397Z,12.80
2023-12-16T17:59:25.092Z,11.57
2023-12-16T18:01:51.819Z,11.30
2023-12-16T18:04:18.516Z,11.63
2023-12-16T18:06:51.177Z,12.50
2023-12-16T18:09:18.768Z,13.53
2023-12-16T18:11:45.471Z,13.63
2023-12-16T18:14:12.278Z,13.33
2023-12-16T18:16:39.011Z,13.10
2023-12-16T18:19:06.193Z,13.80
2023-12-16T18:21:33.421Z,13.60
2023-12-16T18:24:01.420Z,12.70
2023-12-16T18:26:28.431Z,13.80
2023-12-16T18:28:56.552Z,14.73
2023-12-16T18:31:23.413Z,15.23
2023-12-16T18:33:50.349Z,15.10
2023-12-16T18:36:17.156Z,15.83
2023-12-16T18:38:45.774Z,13.03
2023-12-16T18:41:12.899Z,12.60
2023-12-16T18:43:40.405Z,14.00
2023-12-16T18:46:07.425Z,13.07
2023-12-16T18:48:34.486Z,17.10
2023-12-16T18:51:01.259Z,12.87
2023-12-16T18:53:28.014Z,14.07
2023-12-16T18:55:54.645Z,13.40
2023-12-16T18:58:22.005Z,11.00
2023-12-16T19:00:49.909Z,12.17
2023-12-16T19:03:17.837Z,10.83
2023-12-16T19:05:44.610Z,12.13
2023-12-16T19:08:11.997Z,12.43
2023-12-16T19:10:38.644Z,11.17
2023-12-16T19:13:05.319Z,15.70
2023-12-16T19:15:32.023Z,13.90
2023-12-16T19:17:59.153Z,12.83
2023-12-16T19:20:25.951Z,12.13
2023-12-16T19:22:53.935Z,16.47
2023-12-16T19:25:20.671Z,20.07
2023-12-16T19:27:47.392Z,15.67
2023-12-16T19:30:14.249Z,10.70
2023-12-16T19:32:40.992Z,9.60
2023-12-16T19:35:08.679Z,11.40
2023-12-16T19:37:35.357Z,10.17
2023-12-16T19:40:02.091Z,9.87
2023-12-16T19:42:28.749Z,10.07
2023-12-16T19:44:55.406Z,9.57
2023-12-16T19:47:25.889Z,9.67
2023-12-16T19:49:55.787Z,9.50
2023-12-16T19:52:22.486Z,9.13
2023-12-16T19:54:49.131Z,8.47
2023-12-16T19:57:16.005Z,8.63
2023-12-16T19:59:46.269Z,8.07
2023-12-16T20:02:13.307Z,8.20
2023-12-16T20:04:40.063Z,7.93
2023-12-16T20:07:06.744Z,7.37
2023-12-16T20:09:33.419Z,7.90
2023-12-16T20:12:00.096Z,7.17
2023-12-16T20:14:28.523Z,7.33
2023-12-16T20:16:55.334Z,8.27
2023-12-16T20:19:22.186Z,8.17
2023-12-16T20:21:50.253Z,7.30
2023-12-16T20:24:17.148Z,8.07
2023-12-16T20:26:43.881Z,7.87
2023-12-16T20:29:10.656Z,7.73
2023-12-16T20:31:37.328Z,7.43
2023-12-16T20:34:04.255Z,8.57
2023-12-16T20:36:33.044Z,7.47
2023-12-16T20:39:18.621Z,7.43
2023-12-16T20:41:45.336Z,8.13
2023-12-16T20:44:12.028Z,7.57
2023-12-16T20:46:38.819Z,7.63
2023-12-16T20:49:05.664Z,7.13
2023-12-16T20:51:32.574Z,7.13
2023-12-16T20:53:59.290Z,13.67
2023-12-16T20:56:26.023Z,12.83
2023-12-16T20:58:52.889Z,9.70
2023-12-16T21:01:19.970Z,8.67
2023-12-16T21:03:46.724Z,7.90
2023-12-16T21:06:13.496Z,10.57
2023-12-16T21:08:40.256Z,9.33
2023-12-16T21:11:07.043Z,9.17
2023-12-16T21:13:33.707Z,8.03
2023-12-16T21:16:00.355Z,8.20
2023-12-16T21:18:27.321Z,8.17
2023-12-16T21:20:54.559Z,8.53
2023-12-16T21:23:21.227Z,9.43
2023-12-16T21:25:47.894Z,9.23
2023-12-16T21:28:15.091Z,8.10
2023-12-16T21:30:42.370Z,9.30
2023-12-16T21:33:09.266Z,8.20
2023-12-16T21:35:36.120Z,7.70
2023-12-16T21:38:03.165Z,6.90
2023-12-16T21:40:30.156Z,6.67
2023-12-16T21:42:57.930Z,6.77
2023-12-16T21:45:24.650Z,8.97
2023-12-16T21:47:51.623Z,7.63
2023-12-16T21:50:18.434Z,7.70
2023-12-16T21:52:45.188Z,6.80
2023-12-16T21:55:11.898Z,7.00
2023-12-16T21:57:38.762Z,7.40
2023-12-16T22:00:06.225Z,7.57
2023-12-16T22:02:32.926Z,7.13
2023-12-16T22:04:59.628Z,7.10
2023-12-16T22:07:26.370Z,6.93
2023-12-16T22:09:53.247Z,6.90
2023-12-16T22:12:20.197Z,7.93
2023-12-16T22:14:47.190Z,7.23
2023-12-16T22:17:13.851Z,7.53
2023-12-16T22:19:41.465Z,7.27
2023-12-16T22:22:08.199Z,7.23
2023-12-16T22:24:34.880Z,7.17
2023-12-16T22:27:01.604Z,7.63
2023-12-16T22:29:28.294Z,7.77
2023-12-16T22:31:55.067Z,8.00
2023-12-16T22:34:21.947Z,7.53
2023-12-16T22:36:48.693Z,7.63
2023-12-16T22:39:15.463Z,7.53
2023-12-16T22:41:42.186Z,7.40
2023-12-16T22:44:08.860Z,7.13
2023-12-16T22:46:35.560Z,22.50
2023-12-16T22:49:02.503Z,7.70
2023-12-16T22:51:29.505Z,7.33
2023-12-16T22:53:56.402Z,8.83
2023-12-16T22:56:23.097Z,8.87
2023-12-16T22:58:49.771Z,8.00
2023-12-16T23:01:16.489Z,8.20
2023-12-16T23:03:43.365Z,7.90
2023-12-16T23:06:10.169Z,8.60
2023-12-16T23:08:38.105Z,8.10
2023-12-16T23:11:05.392Z,7.50
2023-12-16T23:13:32.071Z,7.70
2023-12-16T23:15:58.741Z,7.23
2023-12-16T23:18:25.515Z,7.67
2023-12-16T23:20:52.311Z,7.40
2023-12-16T23:23:19.109Z,7.50
2023-12-16T23:25:46.032Z,7.53
2023-12-16T23:28:12.776Z,6.97
2023-12-16T23:30:39.608Z,7.57
2023-12-16T23:33:06.470Z,7.47
2023-12-16T23:35:33.304Z,7.47
2023-12-16T23:37:59.985Z,8.07
2023-12-16T23:40:26.658Z,7.93
2023-12-16T23:42:53.308Z,8.47
2023-12-16T23:45:20.166Z,8.73
2023-12-16T23:47:47.161Z,9.40
2023-12-16T23:50:14.103Z,9.10
2023-12-16T23:52:40.790Z,8.67
2023-12-16T23:55:08.063Z,8.03
2023-12-16T23:57:34.911Z,7.87
